Time;durP1;ratioP1;P1;durP2;ratioP2;P2;SDS_P1;SDS_P2;PMS_P1;PMS_P2;Temp;Humidity;BMP_temperature;BMP_pressure;BME280_temperature;BME280_humidity;BME280_pressure;Samples;Min_cycle;Max_cycle;Signal;HPM_P1;HPM_P2
2023/01/07 00:01:13;;;;;;;8.98;7.53;;;;;;;11.69;100.00;101542.13;5008321;28;20034;-63
2023/01/07 00:03:39;;;;;;;8.52;7.40;;;;;;;11.70;100.00;101542.06;4990933;28;20026;-64
2023/01/07 00:06:12;;;;;;;8.70;7.05;;;;;;;11.70;100.00;101542.06;5007902;28;20026;-60
2023/01/07 00:08:39;;;;;;;9.27;7.60;;;;;;;11.56;100.00;101538.94;5008580;28;20040;-61
2023/01/07 00:11:07;;;;;;;10.05;6.28;;;;;;;11.68;100.00;101532.47;5001270;28;20081;-64
2023/01/07 00:13:32;;;;;;;7.43;6.53;;;;;;;11.67;100.00;101536.00;4989972;28;20112;-65
2023/01/07 00:15:59;;;;;;;11.25;6.30;;;;;;;11.52;100.00;101532.88;5006856;28;20370;-58
2023/01/07 00:18:24;;;;;;;12.07;7.35;;;;;;;11.59;100.00;101536.22;5006526;28;20464;-61
2023/01/07 00:20:49;;;;;;;10.05;6.30;;;;;;;11.70;100.00;101536.78;4991060;28;20062;-66
2023/01/07 00:23:15;;;;;;;7.68;5.35;;;;;;;11.69;100.00;101543.00;5008498;28;20481;-64
2023/01/07 00:25:40;;;;;;;7.90;5.30;;;;;;;11.71;100.00;101527.13;5008202;28;20032;-61
2023/01/07 00:28:06;;;;;;;8.27;5.40;;;;;;;11.72;100.00;101523.56;5008448;28;20030;-66
2023/01/07 00:30:31;;;;;;;8.90;5.30;;;;;;;11.75;100.00;101518.19;5008413;28;20045;-66
2023/01/07 00:33:03;;;;;;;8.88;4.63;;;;;;;11.81;100.00;101525.94;4989434;28;20037;-64
2023/01/07 00:35:30;;;;;;;7.20;5.07;;;;;;;11.88;100.00;101523.97;5008770;28;20398;-66
2023/01/07 00:37:55;;;;;;;7.25;5.05;;;;;;;11.87;100.00;101509.91;5008089;28;20030;-60
2023/01/07 00:40:21;;;;;;;7.63;5.00;;;;;;;11.72;100.00;101513.88;5007406;28;20033;-64
2023/01/07 00:42:53;;;;;;;8.38;4.63;;;;;;;11.84;100.00;101512.66;5007176;28;20062;-65
2023/01/07 00:45:19;;;;;;;8.85;3.97;;;;;;;11.83;100.00;101513.53;5007950;28;20034;-59
2023/01/07 00:47:44;;;;;;;6.53;4.25;;;;;;;11.86;100.00;101510.81;4972020;28;20433;-64
2023/01/07 00:50:10;;;;;;;7.82;4.47;;;;;;;11.84;100.00;101507.38;4973118;28;20038;-66
2023/01/07 00:52:35;;;;;;;5.55;4.20;;;;;;;11.78;100.00;101502.28;5007570;28;20408;-61
2023/01/07 00:55:00;;;;;;;7.50;3.90;;;;;;;11.88;100.00;101503.72;5007776;28;20033;-65
2023/01/07 00:57:26;;;;;;;7.72;3.80;;;;;;;11.85;100.00;101495.03;5007960;28;20057;-65
2023/01/07 00:59:51;;;;;;;5.82;3.70;;;;;;;11.90;100.00;101494.88;4990002;28;20069;-64
2023/01/07 01:02:16;;;;;;;11.77;4.60;;;;;;;12.00;100.00;101494.59;5007387;28;20049;-61
2023/01/07 01:04:42;;;;;;;6.30;3.88;;;;;;;11.97;100.00;101497.31;5007727;28;20029;-65
2023/01/07 01:07:07;;;;;;;8.88;4.00;;;;;;;11.97;100.00;101485.88;5007446;28;20377;-64
2023/01/07 01:09:32;;;;;;;5.65;4.10;;;;;;;11.94;100.00;101483.31;5007047;28;20026;-63
2023/01/07 01:11:58;;;;;;;5.28;4.07;;;;;;;11.86;100.00;101486.22;4997828;28;20076;-60
2023/01/07 01:14:23;;;;;;;6.60;3.90;;;;;;;11.92;100.00;101474.59;4987094;28;20061;-63
2023/01/07 01:16:49;;;;;;;8.88;4.65;;;;;;;11.87;100.00;101467.66;4989335;28;20050;-64
2023/01/07 01:19:14;;;;;;;7.78;4.40;;;;;;;11.78;100.00;101467.94;4991596;28;20089;-64
2023/01/07 01:21:40;;;;;;;7.57;4.40;;;;;;;11.77;100.00;101468.84;4991821;28;20746;-60
2023/01/07 01:24:05;;;;;;;6.03;4.00;;;;;;;11.88;100.00;101466.75;4991792;28;20033;-63
2023/01/07 01:26:30;;;;;;;7.85;4.10;;;;;;;11.90;100.00;101457.91;4991964;28;20026;-63
2023/01/07 01:28:56;;;;;;;7.90;4.82;;;;;;;11.84;100.00;101461.63;4991613;28;20125;-66
2023/01/07 01:31:21;;;;;;;6.10;4.03;;;;;;;11.83;100.00;101463.38;4990711;28;20113;-60
2023/01/07 01:33:47;;;;;;;5.63;4.05;;;;;;;11.72;100.00;101461.06;4992579;28;20062;-63
2023/01/07 01:36:12;;;;;;;6.70;4.30;;;;;;;11.72;100.00;101457.56;4991376;28;20026;-64
2023/01/07 01:38:38;;;;;;;6.88;4.80;;;;;;;11.68;100.00;101454.13;4991408;28;20022;-58
2023/01/07 01:41:04;;;;;;;6.93;4.32;;;;;;;11.69;100.00;101460.28;4981997;28;20040;-62
2023/01/07 01:43:33;;;;;;;6.93;4.85;;;;;;;11.73;100.00;101451.34;4992866;28;20661;-62
2023/01/07 01:46:20;;;;;;;6.35;4.60;;;;;;;11.68;100.00;101454.13;4990997;28;20111;-63
2023/01/07 01:48:59;;;;;;;8.07;4.13;;;;;;;11.59;100.00;101444.69;4993118;28;20112;-63
2023/01/07 01:51:26;;;;;;;9.35;4.20;;;;;;;11.60;100.00;101448.22;4993103;28;20030;-63
2023/01/07 01:53:52;;;;;;;6.47;4.25;;;;;;;11.53;100.00;101450.16;4993216;28;20428;-63
2023/01/07 01:56:27;;;;;;;11.30;4.70;;;;;;;11.45;100.00;101449.50;4993903;28;20018;-63
2023/01/07 01:59:11;;;;;;;7.22;4.57;;;;;;;11.53;100.00;101460.69;4992878;28;20034;-61
2023/01/07 02:01:36;;;;;;;11.75;4.30;;;;;;;11.48;100.00;101452.94;5009067;28;20056;-64
2023/01/07 02:04:10;;;;;;;8.90;5.20;;;;;;;11.52;100.00;101448.41;5009784;28;20461;-64
2023/01/07 02:06:40;;;;;;;8.95;4.75;;;;;;;11.56;100.00;101444.78;5062061;22;20050;-73
2023/01/07 02:09:05;;;;;;;8.38;4.88;;;;;;;11.52;100.00;101448.41;5012568;28;20024;-72
2023/01/07 02:11:50;;;;;;;6.80;4.85;;;;;;;11.52;100.00;101448.41;5028822;28;20022;-66
2023/01/07 02:14:28;;;;;;;9.75;5.88;;;;;;;11.44;100.00;101438.06;5012226;28;20026;-69
2023/01/07 02:17:00;;;;;;;6.72;5.50;;;;;;;11.36;100.00;101438.31;5028495;28;20026;-72
2023/01/07 02:19:53;;;;;;;13.38;6.30;;;;;;;11.37;100.00;101432.13;5029957;28;20036;-70
2023/01/07 02:22:43;;;;;;;13.55;6.10;;;;;;;11.27;100.00;101442.97;5012716;28;20038;-67
2023/01/07 02:25:20;;;;;;;11.10;6.90;;;;;;;11.26;100.00;101434.19;5008929;28;20018;-71
2023/01/07 02:28:06;;;;;;;10.25;6.47;;;;;;;11.31;100.00;101431.41;5010408;28;20058;-72
2023/01/07 02:31:09;;;;;;;8.60;7.30;;;;;;;11.17;100.00;101427.38;4992485;28;20029;-69
2023/01/07 02:34:03;;;;;;;12.02;6.32;;;;;;;11.11;100.00;101423.13;5010021;28;20033;-70
2023/01/07 02:36:45;;;;;;;9.75;6.50;;;;;;;11.07;100.00;101429.41;5007663;28;20040;-73
2023/01/07 02:39:25;;;;;;;9.02;5.78;;;;;;;11.10;100.00;101420.53;4991861;28;20057;-72
2023/01/07 02:42:03;;;;;;;9.45;6.15;;;;;;;11.01;100.00;101420.81;5009560;28;20022;-70
2023/01/07 02:44:37;;;;;;;13.35;6.55;;;;;;;11.05;100.00;101427.72;4991698;28;20095;-70
2023/01/07 02:47:08;;;;;;;9.68;6.30;;;;;;;11.04;100.00;101416.28;4990572;28;20180;-72
2023/01/07 02:49:34;;;;;;;12.00;5.95;;;;;;;10.98;100.00;101421.72;4991659;28;20113;-71
2023/01/07 02:52:19;;;;;;;9.75;6.10;;;;;;;11.01;100.00;101412.88;5009375;28;20550;-72
2023/01/07 02:54:50;;;;;;;10.40;6.05;;;;;;;10.98;100.00;101414.69;5009567;28;20616;-71
2023/01/07 02:57:24;;;;;;;7.10;5.63;;;;;;;11.01;100.00;101416.38;5008998;28;20037;-69
2023/01/07 02:59:58;;;;;;;8.80;5.88;;;;;;;10.86;100.00;101415.00;5009798;28;20424;-71
2023/01/07 03:03:12;;;;;;;9.40;6.03;;;;;;;10.94;100.00;101412.16;5008959;28;20481;-69
2023/01/07 03:05:49;;;;;;;9.40;5.53;;;;;;;10.91;100.00;101404.34;5000970;28;20040;-72
2023/01/07 03:08:15;;;;;;;10.32;5.05;;;;;;;10.82;100.00;101395.78;4972172;28;20032;-64
2023/01/07 03:10:57;;;;;;;7.63;4.85;;;;;;;10.93;100.00;101398.09;5010037;28;20124;-69
2023/01/07 03:13:27;;;;;;;7.40;5.40;;;;;;;10.79;100.00;101387.06;5028474;28;20052;-69
2023/01/07 03:15:58;;;;;;;9.55;5.15;;;;;;;10.90;100.00;101392.06;5006227;28;20046;-70
2023/01/07 03:18:25;;;;;;;8.02;5.22;;;;;;;10.84;100.00;101391.31;5008381;28;20076;-64
2023/01/07 03:20:56;;;;;;;12.82;5.00;;;;;;;10.92;100.00;101379.69;5028236;28;20032;-70
2023/01/07 03:23:24;;;;;;;8.52;5.25;;;;;;;10.84;100.00;101387.84;5010893;28;20408;-70
2023/01/07 03:25:51;;;;;;;9.10;5.50;;;;;;;10.79;100.00;101382.69;5010439;28;20022;-71
2023/01/07 03:28:20;;;;;;;11.20;5.20;;;;;;;10.86;100.00;101386.88;5010562;28;20033;-72
2023/01/07 03:30:45;;;;;;;;;;;;;;;10.86;100.00;101380.72;5028272;28;20021;-72
2023/01/07 03:33:15;;;;;;;9.27;4.97;;;;;;;10.82;100.00;101379.09;5010593;28;19920;-72
2023/01/07 03:35:41;;;;;;;9.60;5.05;;;;;;;10.83;100.00;101379.03;5028188;28;20746;-68
2023/01/07 03:38:07;;;;;;;8.77;5.00;;;;;;;10.76;100.00;101382.75;5009530;28;20032;-69
2023/01/07 03:40:33;;;;;;;7.97;4.85;;;;;;;10.83;100.00;101376.41;4972951;28;20030;-70
2023/01/07 03:42:59;;;;;;;8.95;5.43;;;;;;;10.80;100.00;101380.88;4987891;28;20093;-71
2023/01/07 03:45:26;;;;;;;8.75;5.90;;;;;;;10.80;100.00;101375.59;4970433;28;20117;-72
2023/01/07 03:47:54;;;;;;;9.55;5.32;;;;;;;10.77;100.00;101375.72;4969617;28;20033;-67
2023/01/07 03:50:20;;;;;;;8.43;5.13;;;;;;;10.72;100.00;101373.19;4972106;28;20026;-68
2023/01/07 03:52:47;;;;;;;7.35;5.38;;;;;;;10.84;100.00;101378.13;4988985;28;20487;-68
2023/01/07 03:55:12;;;;;;;7.78;4.90;;;;;;;10.80;100.00;101370.34;4988439;28;20456;-71
2023/01/07 03:57:38;;;;;;;6.47;4.57;;;;;;;10.93;100.00;101370.91;4988401;28;20033;-72
2023/01/07 04:00:05;;;;;;;7.72;4.35;;;;;;;10.91;100.00;101365.66;4975742;28;20030;-68
2023/01/07 04:02:30;;;;;;;7.95;5.20;;;;;;;10.92;100.00;101356.84;4987293;28;20652;-72
2023/01/07 04:04:56;;;;;;;9.48;5.65;;;;;;;10.79;100.00;101361.59;5003521;28;20049;-72
2023/01/07 04:07:21;;;;;;;13.15;5.22;;;;;;;10.85;100.00;101358.78;5007911;28;20050;-69
2023/01/07 04:09:48;;;;;;;8.75;5.15;;;;;;;10.91;100.00;101351.59;5007966;28;20028;-72
2023/01/07 04:12:13;;;;;;;16.20;5.15;;;;;;;10.91;100.00;101356.88;5008225;28;20078;-72
2023/01/07 04:14:39;;;;;;;10.55;5.55;;;;;;;10.99;100.00;101360.19;5008232;28;20033;-72
2023/01/07 04:17:04;;;;;;;6.93;5.05;;;;;;;11.03;100.00;101350.41;5007242;28;20550;-69
2023/01/07 04:19:30;;;;;;;8.55;5.32;;;;;;;11.08;100.00;101343.25;5007601;28;20116;-70
2023/01/07 04:21:55;;;;;;;12.48;6.53;;;;;;;11.09;100.00;101340.56;5006863;28;20081;-71
2023/01/07 04:24:20;;;;;;;12.90;6.63;;;;;;;11.01;100.00;101341.69;5006750;28;20029;-65
2023/01/07 04:26:46;;;;;;;10.23;6.57;;;;;;;10.99;100.00;101334.66;5026909;28;20503;-71
2023/01/07 04:29:11;;;;;;;10.65;5.65;;;;;;;11.10;100.00;101329.09;5027736;28;20029;-71
2023/01/07 04:31:37;;;;;;;10.38;7.32;;;;;;;10.99;100.00;101325.91;5027124;28;20021;-71
2023/01/07 04:34:02;;;;;;;7.50;5.90;;;;;;;10.86;100.00;101331.50;5027649;28;20086;-74
2023/01/07 04:36:28;;;;;;;12.10;6.15;;;;;;;10.82;100.00;101324.59;5027923;28;20025;-72
2023/01/07 04:38:53;;;;;;;9.20;5.95;;;;;;;10.94;100.00;101331.31;5027354;28;20026;-73
2023/01/07 04:41:18;;;;;;;11.13;6.78;;;;;;;11.00;100.00;101330.28;5010057;28;20030;-71
2023/01/07 04:43:44;;;;;;;13.32;7.57;;;;;;;11.02;100.00;101327.59;5027784;28;20029;-70
2023/01/07 04:46:09;;;;;;;10.55;6.43;;;;;;;10.99;100.00;101323.28;5026677;28;20033;-71
2023/01/07 04:48:34;;;;;;;17.05;6.20;;;;;;;10.96;100.00;101320.72;5018511;28;20472;-69
2023/01/07 04:51:00;;;;;;;11.07;6.78;;;;;;;11.05;100.00;101320.44;4971036;28;20111;-71
2023/01/07 04:53:25;;;;;;;13.15;6.78;;;;;;;10.97;100.00;101310.13;4974022;28;20500;-67
2023/01/07 04:55:52;;;;;;;14.18;7.22;;;;;;;10.98;100.00;101313.63;4991910;28;20054;-67
2023/01/07 04:58:17;;;;;;;10.43;7.03;;;;;;;10.97;100.00;101312.78;4992868;28;20026;-70
2023/01/07 05:00:44;;;;;;;12.55;6.80;;;;;;;10.97;100.00;101304.84;4991743;28;20085;-70
2023/01/07 05:03:09;;;;;;;9.88;6.78;;;;;;;10.84;100.00;101308.75;4992459;28;20290;-72
2023/01/07 05:05:34;;;;;;;15.10;7.07;;;;;;;10.90;100.00;101298.03;4992149;28;20034;-68
2023/01/07 05:08:00;;;;;;;11.23;7.95;;;;;;;10.89;100.00;101296.28;4992472;28;20058;-72
2023/01/07 05:10:25;;;;;;;14.57;8.02;;;;;;;10.79;100.00;101290.41;4998214;28;20036;-72
2023/01/07 05:12:50;;;;;;;12.65;8.00;;;;;;;10.69;100.00;101284.50;4976759;28;20034;-65
2023/01/07 05:15:16;;;;;;;14.95;7.88;;;;;;;10.72;100.00;101288.84;5011399;28;20116;-68
2023/01/07 05:17:41;;;;;;;12.25;7.72;;;;;;;10.59;100.00;101290.94;5010881;28;20030;-70
2023/01/07 05:20:07;;;;;;;17.20;7.90;;;;;;;10.63;100.00;101286.47;5005949;28;20045;-71
2023/01/07 05:22:33;;;;;;;14.10;8.02;;;;;;;10.71;100.00;101289.75;5004376;28;20062;-68
2023/01/07 05:24:58;;;;;;;14.88;8.15;;;;;;;10.64;100.00;101280.28;5013000;28;20022;-72
2023/01/07 05:27:24;;;;;;;16.75;7.85;;;;;;;10.70;100.00;101277.47;4993589;28;20027;-71
2023/01/07 05:29:49;;;;;;;13.40;8.13;;;;;;;10.80;100.00;101276.31;5003408;28;20162;-69
2023/01/07 05:32:14;;;;;;;13.85;7.20;;;;;;;10.82;100.00;101277.16;5006941;28;20022;-73
2023/01/07 05:34:40;;;;;;;10.73;7.20;;;;;;;10.76;100.00;101260.63;5011025;28;20545;-71
2023/01/07 05:37:05;;;;;;;10.75;7.88;;;;;;;10.77;100.00;101260.59;5010063;28;20160;-70
2023/01/07 05:39:30;;;;;;;12.93;7.47;;;;;;;10.80;100.00;101257.00;5010790;28;20022;-66
2023/01/07 05:41:56;;;;;;;12.77;7.68;;;;;;;10.71;100.00;101266.03;5010613;28;20033;-72
2023/01/07 05:44:21;;;;;;;14.30;7.60;;;;;;;10.77;100.00;101263.22;5010246;28;20029;-69
2023/01/07 05:46:46;;;;;;;16.35;7.72;;;;;;;10.80;100.00;101249.97;5010641;28;20064;-70
2023/01/07 05:49:12;;;;;;;14.77;7.60;;;;;;;10.72;100.00;101254.59;5025353;28;20431;-72
2023/01/07 05:51:37;;;;;;;12.88;7.78;;;;;;;10.63;100.00;101252.22;5010517;28;20080;-69
2023/01/07 05:54:02;;;;;;;18.77;8.10;;;;;;;10.66;100.00;101244.22;5009709;28;20026;-71
2023/01/07 05:56:28;;;;;;;12.60;7.25;;;;;;;10.52;100.00;101240.19;5010492;28;20030;-71
2023/01/07 05:58:53;;;;;;;15.27;7.75;;;;;;;10.47;100.00;101235.03;5010508;28;20052;-71
2023/01/07 06:01:18;;;;;;;19.55;8.70;;;;;;;10.41;100.00;101236.97;5003564;28;20070;-68
2023/01/07 06:03:44;;;;;;;18.05;7.25;;;;;;;10.46;100.00;101232.44;5006276;28;20049;-69
2023/01/07 06:06:09;;;;;;;15.82;8.13;;;;;;;10.32;100.00;101223.09;5009214;28;20576;-70
2023/01/07 06:08:35;;;;;;;20.02;8.25;;;;;;;10.28;100.00;101226.75;5010686;28;20034;-69
2023/01/07 06:11:01;;;;;;;11.68;8.10;;;;;;;10.22;100.00;101219.88;5010876;28;20030;-70
2023/01/07 06:13:27;;;;;;;14.25;7.82;;;;;;;10.20;100.00;101226.06;5000743;28;20037;-70
2023/01/07 06:15:53;;;;;;;12.98;8.40;;;;;;;10.21;100.00;101219.91;5008043;28;20359;-67
2023/01/07 06:18:18;;;;;;;13.32;7.13;;;;;;;10.21;100.00;101220.75;4991384;28;20037;-67
2023/01/07 06:20:43;;;;;;;10.35;7.40;;;;;;;10.22;100.00;101219.00;5009122;28;20029;-70
2023/01/07 06:23:09;;;;;;;17.65;8.85;;;;;;;10.20;100.00;101215.53;5009336;28;20146;-65
2023/01/07 06:25:34;;;;;;;14.73;7.93;;;;;;;10.23;100.00;101213.69;5009989;28;20108;-68
2023/01/07 06:27:59;;;;;;;16.05;7.22;;;;;;;10.18;100.00;101205.03;5010171;28;20113;-71
2023/01/07 06:30:25;;;;;;;15.15;7.18;;;;;;;10.21;100.00;101204.09;5009755;28;20026;-71
2023/01/07 06:32:50;;;;;;;13.85;6.57;;;;;;;10.13;100.00;101203.44;4992471;28;20018;-65
2023/01/07 06:35:16;;;;;;;9.50;5.95;;;;;;;10.19;100.00;101195.38;5010700;28;20451;-71
2023/01/07 06:37:41;;;;;;;10.02;5.63;;;;;;;10.20;100.00;101190.06;5009996;28;20360;-72
2023/01/07 06:40:07;;;;;;;11.38;5.45;;;;;;;10.09;100.00;101190.34;5009812;28;20022;-72
2023/01/07 06:42:32;;;;;;;9.07;5.07;;;;;;;10.08;100.00;101188.63;4999550;28;20525;-71
2023/01/07 06:44:58;;;;;;;8.15;5.10;;;;;;;10.14;100.00;101192.00;5009688;28;20022;-72
2023/01/07 06:47:24;;;;;;;6.40;4.25;;;;;;;10.16;100.00;101190.19;5008080;28;20033;-71
2023/01/07 06:49:50;;;;;;;11.32;5.18;;;;;;;10.22;100.00;101195.28;5009693;28;20439;-69
2023/01/07 06:52:15;;;;;;;7.13;4.32;;;;;;;10.16;100.00;101195.44;4992370;28;20464;-71
2023/01/07 06:54:41;;;;;;;12.32;4.22;;;;;;;10.16;100.00;101195.44;5009843;28;20030;-68
2023/01/07 06:57:06;;;;;;;9.13;4.40;;;;;;;10.14;100.00;101181.47;5009399;28;20022;-71
2023/01/07 06:59:31;;;;;;;5.82;3.60;;;;;;;10.27;100.00;101177.59;4991904;28;20030;-72
2023/01/07 07:01:57;;;;;;;7.30;3.85;;;;;;;10.26;100.00;101173.22;5008643;28;20472;-73
2023/01/07 07:04:22;;;;;;;7.25;3.72;;;;;;;10.34;100.00;101179.16;5005422;28;20040;-69
2023/01/07 07:06:47;;;;;;;4.28;3.10;;;;;;;10.35;100.00;101180.88;4987134;28;20070;-73
2023/01/07 07:09:13;;;;;;;7.70;3.42;;;;;;;10.49;100.00;101177.03;5008346;28;20030;-73
2023/01/07 07:11:38;;;;;;;4.85;3.20;;;;;;;10.68;100.00;101160.69;5008302;28;20395;-72
2023/01/07 07:14:04;;;;;;;8.75;2.88;;;;;;;10.65;100.00;101166.06;5008121;28;20120;-66
2023/01/07 07:16:29;;;;;;;4.70;2.80;;;;;;;10.72;100.00;101162.34;5008671;28;20160;-73
2023/01/07 07:18:54;;;;;;;5.25;2.85;;;;;;;10.65;100.00;101160.81;5008963;28;20037;-73
2023/01/07 07:21:20;;;;;;;10.20;3.15;;;;;;;10.82;100.00;101171.72;5009455;28;20587;-65
2023/01/07 07:23:45;;;;;;;4.78;2.47;;;;;;;10.94;100.00;101161.69;5006876;28;20034;-73
2023/01/07 07:26:11;;;;;;;5.90;2.42;;;;;;;10.92;100.00;101155.59;5001266;28;20034;-72
2023/01/07 07:28:36;;;;;;;4.63;2.33;;;;;;;10.94;100.00;101151.16;5007545;28;20068;-70
2023/01/07 07:31:02;;;;;;;3.10;2.40;;;;;;;10.94;100.00;101153.78;5005975;28;20026;-72
2023/01/07 07:33:27;;;;;;;3.78;2.42;;;;;;;10.94;100.00;101145.88;5006483;28;20022;-73
2023/01/07 07:35:54;;;;;;;5.28;2.28;;;;;;;10.86;100.00;101152.25;5007422;28;20085;-74
2023/01/07 07:38:20;;;;;;;5.05;1.88;;;;;;;11.03;100.00;101152.63;5007601;28;20025;-70
2023/01/07 07:40:46;;;;;;;5.35;2.13;;;;;;;11.04;100.00;101144.69;5005123;28;20399;-74
2023/01/07 07:43:12;;;;;;;4.45;1.80;;;;;;;11.04;100.00;101146.44;4990022;28;20026;-72
2023/01/07 07:45:37;;;;;;;4.68;2.10;;;;;;;10.95;100.00;101142.31;5006734;28;20025;-74
2023/01/07 07:48:06;;;;;;;6.55;2.13;;;;;;;10.78;100.00;101141.09;4989003;28;20472;-72
2023/01/07 07:50:31;;;;;;;4.23;2.00;;;;;;;10.90;100.00;101136.34;5006684;28;20052;-71
2023/01/07 07:52:56;;;;;;;3.70;2.08;;;;;;;10.90;100.00;101141.59;5001407;28;20025;-73
2023/01/07 07:55:22;;;;;;;4.38;2.20;;;;;;;10.96;100.00;101138.78;5004380;28;20432;-72
2023/01/07 07:57:47;;;;;;;3.08;1.95;;;;;;;10.91;100.00;101131.03;5007476;28;20072;-70
2023/01/07 08:00:14;;;;;;;5.13;1.90;;;;;;;10.97;100.00;101128.19;5005688;28;20117;-72
2023/01/07 08:02:39;;;;;;;4.65;2.00;;;;;;;10.97;100.00;101124.69;5006721;28;20108;-70
2023/01/07 08:05:05;;;;;;;2.47;1.70;;;;;;;11.00;100.00;101124.59;5006863;28;20096;-73
2023/01/07 08:07:30;;;;;;;5.55;1.92;;;;;;;11.01;100.00;101123.69;4988095;28;20041;-71
2023/01/07 08:09:56;;;;;;;2.17;1.80;;;;;;;11.06;100.00;101132.31;5004716;28;20165;-63
2023/01/07 08:12:21;;;;;;;3.10;1.95;;;;;;;11.14;100.00;101123.31;5004417;28;20026;-73
2023/01/07 08:14:46;;;;;;;2.50;1.58;;;;;;;11.18;100.00;101128.44;5006497;28;20018;-69
2023/01/07 08:17:12;;;;;;;2.45;1.40;;;;;;;11.08;100.00;101127.00;5006113;28;20022;-73
2023/01/07 08:19:37;;;;;;;6.32;2.00;;;;;;;10.98;100.00;101123.78;5005260;28;20034;-69
2023/01/07 08:22:02;;;;;;;2.17;1.63;;;;;;;11.05;100.00;101125.28;5006024;28;20372;-70
2023/01/07 08:24:28;;;;;;;5.47;1.70;;;;;;;10.97;100.00;101122.06;5006003;28;20053;-74
2023/01/07 08:26:54;;;;;;;3.42;1.80;;;;;;;10.98;100.00;101121.13;4989154;28;20050;-75
2023/01/07 08:29:21;;;;;;;2.00;1.50;;;;;;;11.06;100.00;101124.41;5006274;28;20068;-71
2023/01/07 08:31:47;;;;;;;3.33;1.80;;;;;;;10.98;100.00;101121.13;5005911;28;20029;-71
2023/01/07 08:34:12;;;;;;;3.08;1.80;;;;;;;10.93;100.00;101117.78;5006024;28;20013;-73
2023/01/07 08:36:37;;;;;;;3.22;2.13;;;;;;;10.99;100.00;101118.44;4988869;28;20475;-73
2023/01/07 08:39:03;;;;;;;6.00;2.03;;;;;;;10.99;100.00;101117.59;5008815;28;20535;-66
2023/01/07 08:41:28;;;;;;;2.28;1.70;;;;;;;10.98;100.00;101111.47;5021745;28;20069;-76
2023/01/07 08:43:54;;;;;;;3.88;2.20;;;;;;;11.04;100.00;101118.31;5003194;28;20061;-74
2023/01/07 08:46:19;;;;;;;2.95;1.70;;;;;;;11.12;100.00;101118.94;4999586;28;20120;-72
2023/01/07 08:48:44;;;;;;;6.35;2.00;;;;;;;11.03;100.00;101113.97;5006295;28;20387;-69
2023/01/07 08:51:10;;;;;;;2.90;1.63;;;;;;;11.00;100.00;101108.78;5005798;28;20399;-73
2023/01/07 08:53:35;;;;;;;2.72;1.80;;;;;;;11.06;100.00;101113.00;5007163;28;20030;-74
2023/01/07 08:56:00;;;;;;;5.18;1.60;;;;;;;11.11;100.00;101117.19;5006649;28;20030;-74
2023/01/07 08:58:26;;;;;;;2.03;1.50;;;;;;;11.10;100.00;101107.56;5007281;28;20350;-73
2023/01/07 09:00:52;;;;;;;1.85;1.55;;;;;;;11.15;100.00;101107.44;5002338;28;20018;-70
2023/01/07 09:03:17;;;;;;;1.38;1.20;;;;;;;11.21;100.00;101103.72;5003187;28;20038;-70
2023/01/07 09:05:45;;;;;;;1.63;1.48;;;;;;;11.37;100.00;101109.34;5008124;28;20438;-73
2023/01/07 09:08:10;;;;;;;1.52;1.38;;;;;;;11.28;100.00;101101.72;5024791;28;20060;-73
2023/01/07 09:10:36;;;;;;;1.13;1.02;;;;;;;11.27;100.00;101090.34;5008889;28;20469;-71
2023/01/07 09:13:01;;;;;;;2.05;1.25;;;;;;;11.25;100.00;101097.44;4989003;28;20041;-71
2023/01/07 09:15:26;;;;;;;1.30;1.17;;;;;;;11.34;100.00;101088.34;5001881;28;20018;-72
2023/01/07 09:17:52;;;;;;;1.38;1.10;;;;;;;11.13;100.00;101080.22;5001954;28;20105;-72
2023/01/07 09:20:18;;;;;;;2.60;1.60;;;;;;;11.32;100.00;101069.94;5006674;28;20058;-71
2023/01/07 09:22:43;;;;;;;2.17;1.40;;;;;;;11.29;100.00;101062.13;5002419;28;20034;-64
2023/01/07 09:25:08;;;;;;;2.85;1.50;;;;;;;11.30;100.00;101061.22;5001335;28;20498;-75
2023/01/07 09:27:34;;;;;;;1.75;1.20;;;;;;;11.15;100.00;101069.63;5007674;28;20097;-66
2023/01/07 09:29:59;;;;;;;3.08;1.33;;;;;;;11.22;100.00;101060.59;5005028;28;20041;-74
2023/01/07 09:32:25;;;;;;;1.63;1.30;;;;;;;11.25;100.00;101057.88;4998373;28;20064;-74
2023/01/07 09:34:51;;;;;;;3.28;1.40;;;;;;;11.16;100.00;101053.75;5005359;28;20384;-64
2023/01/07 09:37:16;;;;;;;2.28;1.40;;;;;;;11.32;100.00;101062.03;5003115;28;20018;-74
2023/01/07 09:39:41;;;;;;;1.90;1.63;;;;;;;11.29;100.00;101048.94;5006224;28;20034;-73
2023/01/07 09:42:23;;;;;;;2.17;1.42;;;;;;;11.44;100.00;101044.06;5010301;28;20341;-74
2023/01/07 09:44:57;;;;;;;1.67;1.27;;;;;;;11.52;100.00;101046.41;4998999;28;20018;-73
2023/01/07 09:47:24;;;;;;;1.27;1.17;;;;;;;11.58;100.00;101036.53;5010412;28;20464;-74
2023/01/07 09:49:54;;;;;;;2.72;1.45;;;;;;;11.53;100.00;101027.06;4993109;28;20435;-72
2023/01/07 09:52:30;;;;;;;3.38;1.63;;;;;;;11.68;100.00;101023.00;4986331;28;20026;-74
2023/01/07 09:55:02;;;;;;;2.08;1.40;;;;;;;11.75;100.00;101016.59;4988505;28;20022;-63
2023/01/07 09:57:27;;;;;;;2.30;1.35;;;;;;;11.75;100.00;101016.59;5010415;28;20109;-64
2023/01/07 09:59:53;;;;;;;2.00;1.20;;;;;;;11.68;100.00;101013.28;5009043;28;20026;-64
2023/01/07 10:02:33;;;;;;;2.40;1.30;;;;;;;11.71;100.00;101015.00;5015238;28;20025;-63
2023/01/07 10:04:58;;;;;;;2.78;1.38;;;;;;;11.90;100.00;101014.31;4992142;28;20042;-62
2023/01/07 10:07:26;;;;;;;4.72;1.50;;;;;;;11.83;100.00;101000.47;5010206;28;20050;-63
2023/01/07 10:10:16;;;;;;;1.88;1.30;;;;;;;11.95;100.00;100996.53;5009060;28;20081;-62
2023/01/07 10:12:55;;;;;;;3.38;1.23;;;;;;;11.94;100.00;101007.97;5023254;28;20117;-64
2023/01/07 10:15:41;;;;;;;3.58;1.20;;;;;;;12.19;100.00;100992.09;4992135;28;20017;-63
2023/01/07 10:18:19;;;;;;;2.67;1.63;;;;;;;12.04;100.00;100985.59;5009771;28;20049;-63
2023/01/07 10:21:13;;;;;;;3.30;1.30;;;;;;;12.29;100.00;100979.44;4999027;28;20364;-63
2023/01/07 10:23:41;;;;;;;1.63;1.10;;;;;;;12.42;99.25;100973.63;5009488;28;20532;-63
2023/01/07 10:26:16;;;;;;;2.55;1.15;;;;;;;12.36;98.37;100970.34;4995634;28;20352;-62
2023/01/07 10:28:49;;;;;;;1.00;0.90;;;;;;;12.49;98.21;100962.75;5009744;28;20041;-65
2023/01/07 10:31:26;;;;;;;1.00;0.95;;;;;;;12.57;98.07;100962.47;5001801;28;20068;-64
2023/01/07 10:33:51;;;;;;;1.27;1.00;;;;;;;12.42;98.66;100952.50;4991827;28;20025;-65
2023/01/07 10:36:23;;;;;;;1.20;1.10;;;;;;;12.24;99.25;100941.75;5015468;28;20056;-63
2023/01/07 10:39:25;;;;;;;1.10;1.00;;;;;;;12.34;100.00;100940.44;5009625;28;20029;-62
2023/01/07 10:41:59;;;;;;;1.17;1.00;;;;;;;12.43;100.00;100928.66;4993264;28;20034;-62
2023/01/07 10:44:39;;;;;;;1.00;0.93;;;;;;;12.42;98.96;100928.72;5009095;28;20498;-62
2023/01/07 10:47:23;;;;;;;1.02;1.02;;;;;;;12.29;100.00;100923.94;4992802;28;20026;-63
2023/01/07 10:50:07;;;;;;;1.10;0.93;;;;;;;12.59;99.68;100913.06;5008582;28;20061;-62
2023/01/07 10:52:53;;;;;;;2.45;1.10;;;;;;;12.41;100.00;100901.44;5009642;28;20022;-63
2023/01/07 10:55:44;;;;;;;1.98;1.10;;;;;;;12.49;99.80;100887.91;5008366;28;20113;-62
2023/01/07 10:58:10;;;;;;;0.85;0.82;;;;;;;12.65;100.00;100877.56;4991159;28;20109;-63
2023/01/07 11:00:37;;;;;;;1.20;1.08;;;;;;;12.64;99.40;100868.78;5009096;28;20030;-62
2023/01/07 11:03:03;;;;;;;3.25;1.20;;;;;;;12.42;99.36;100874.09;5004102;28;20110;-66
2023/01/07 11:05:35;;;;;;;1.75;1.00;;;;;;;12.48;99.41;100862.41;5009433;28;20113;-61
2023/01/07 11:08:02;;;;;;;1.20;1.10;;;;;;;12.72;98.75;100862.28;5008223;28;20362;-64
2023/01/07 11:10:30;;;;;;;1.80;1.50;;;;;;;12.55;100.00;100853.28;4992226;28;20053;-65
2023/01/07 11:12:59;;;;;;;1.93;1.77;;;;;;;12.45;100.00;100829.03;4987094;28;20026;-63
2023/01/07 11:15:44;;;;;;;1.80;1.25;;;;;;;12.41;100.00;100832.75;4992137;28;20034;-61
2023/01/07 11:18:53;;;;;;;1.50;1.02;;;;;;;12.56;99.89;100833.00;4990481;28;20030;-63
2023/01/07 11:21:34;;;;;;;1.20;1.10;;;;;;;12.49;100.00;100837.69;4988985;28;20469;-63